Time;durP1;ratioP1;P1;durP2;ratioP2;P2;SDS_P1;SDS_P2;PMS_P1;PMS_P2;Temp;Humidity;BMP_temperature;BMP_pressure;BME280_temperature;BME280_humidity;BME280_pressure;Samples;Min_cycle;Max_cycle;Signal;HPM_P1;HPM_P2
2022/02/17 00:00:21;;;;;;;20.45;13.38;;;6.40;99.90;;;;;;5010822;28;20049;-69
2022/02/17 00:03:25;;;;;;;18.17;12.48;;;6.30;99.90;;;;;;5011173;28;20053;-69
2022/02/17 00:06:29;;;;;;;23.63;13.25;;;6.30;99.90;;;;;;5013936;28;20071;-69
2022/02/17 00:09:34;;;;;;;21.23;12.95;;;6.20;99.90;;;;;;5014506;28;20045;-69
2022/02/17 00:12:38;;;;;;;24.05;14.68;;;6.20;99.90;;;;;;5011037;28;20053;-69
2022/02/17 00:15:42;;;;;;;24.05;13.95;;;5.90;99.90;;;;;;5011032;28;20049;-69
2022/02/17 00:18:47;;;;;;;21.92;14.27;;;6.00;99.90;;;;;;5010740;28;20045;-69
2022/02/17 00:21:51;;;;;;;23.25;15.23;;;6.00;99.90;;;;;;5013627;28;20052;-69
2022/02/17 00:24:56;;;;;;;28.52;16.58;;;5.90;99.90;;;;;;5010832;28;20049;-69
2022/02/17 00:28:00;;;;;;;24.58;17.00;;;5.90;99.90;;;;;;5010492;28;20077;-69
2022/02/17 00:31:05;;;;;;;25.58;15.77;;;5.80;99.90;;;;;;5009984;28;20057;-69
2022/02/17 00:34:10;;;;;;;26.83;16.77;;;5.90;99.90;;;;;;5012048;28;20044;-68
2022/02/17 00:37:15;;;;;;;20.80;14.50;;;6.00;99.90;;;;;;5011643;28;20524;-69
2022/02/17 00:40:20;;;;;;;22.92;15.68;;;6.10;99.90;;;;;;5021026;28;20045;-69
2022/02/17 00:43:25;;;;;;;26.35;16.73;;;6.10;99.90;;;;;;5012760;28;20393;-69
2022/02/17 00:46:30;;;;;;;27.25;16.90;;;6.20;99.90;;;;;;5010574;28;20052;-69
2022/02/17 00:49:34;;;;;;;29.55;15.45;;;6.30;99.90;;;;;;5011653;28;20045;-69
2022/02/17 00:52:39;;;;;;;19.50;14.63;;;6.40;99.90;;;;;;5012087;28;20056;-69
2022/02/17 00:55:43;;;;;;;24.55;15.80;;;6.30;99.90;;;;;;5025816;28;20131;-69
2022/02/17 00:58:48;;;;;;;26.48;16.90;;;6.30;99.90;;;;;;5013630;28;20385;-69
2022/02/17 01:02:01;;;;;;;27.65;15.35;;;6.20;99.90;;;;;;5013235;28;20491;-69
2022/02/17 01:05:08;;;;;;;23.77;14.93;;;6.30;99.90;;;;;;5016762;28;20400;-69
2022/02/17 01:08:12;;;;;;;22.35;13.48;;;6.30;99.90;;;;;;5016670;28;20052;-69
2022/02/17 01:11:16;;;;;;;27.45;15.93;;;6.40;99.90;;;;;;5014221;28;20045;-69
2022/02/17 01:14:20;;;;;;;23.13;15.68;;;6.30;99.90;;;;;;5025798;28;20117;-69
2022/02/17 01:17:27;;;;;;;23.13;14.55;;;6.30;99.90;;;;;;5013787;28;20779;-69
2022/02/17 01:20:31;;;;;;;20.90;13.30;;;6.40;99.90;;;;;;5025156;28;20041;-69
2022/02/17 01:23:37;;;;;;;25.05;14.63;;;6.50;99.90;;;;;;5027111;28;20037;-69
2022/02/17 01:26:42;;;;;;;25.00;14.18;;;6.50;99.90;;;;;;5027811;28;20060;-69
2022/02/17 01:29:52;;;;;;;20.65;13.00;;;6.60;99.90;;;;;;5026128;28;20041;-69
2022/02/17 01:32:58;;;;;;;19.13;12.38;;;6.70;99.90;;;;;;5016809;28;20041;-69
2022/02/17 01:36:06;;;;;;;20.70;11.98;;;6.70;99.90;;;;;;5014028;28;20064;-69
2022/02/17 01:39:11;;;;;;;19.45;12.05;;;6.70;99.90;;;;;;5013134;28;20053;-69
2022/02/17 01:42:17;;;;;;;21.85;13.05;;;6.70;99.90;;;;;;5015930;28;20048;-69
2022/02/17 01:45:21;;;;;;;14.45;10.05;;;6.80;99.90;;;;;;5014671;28;20037;-69
2022/02/17 01:48:28;;;;;;;15.15;9.93;;;6.90;99.90;;;;;;5015909;28;20389;-69
2022/02/17 01:51:33;;;;;;;16.98;11.02;;;6.90;99.90;;;;;;5014613;28;20109;-69
2022/02/17 01:54:39;;;;;;;15.80;10.70;;;6.90;99.90;;;;;;5014167;28;20052;-69
2022/02/17 01:57:43;;;;;;;15.00;9.48;;;7.00;99.90;;;;;;5023695;28;20056;-69
2022/02/17 02:00:53;;;;;;;16.33;9.32;;;7.00;99.90;;;;;;5023377;28;20500;-69
2022/02/17 02:04:03;;;;;;;14.05;9.48;;;7.00;99.90;;;;;;5012258;28;20037;-69
2022/02/17 02:07:08;;;;;;;14.77;9.77;;;7.00;99.90;;;;;;5015251;28;20045;-69
2022/02/17 02:10:12;;;;;;;16.42;10.45;;;7.10;99.90;;;;;;5014331;28;20045;-69
2022/02/17 02:13:17;;;;;;;19.90;12.13;;;6.90;99.90;;;;;;5016058;28;20052;-69
2022/02/17 02:16:23;;;;;;;20.25;10.80;;;6.90;99.90;;;;;;5024099;28;20393;-69
2022/02/17 02:19:28;;;;;;;14.02;8.77;;;6.90;99.90;;;;;;5024971;28;20061;-69
2022/02/17 02:22:37;;;;;;;16.95;8.02;;;7.10;99.90;;;;;;5015732;28;20057;-68
2022/02/17 02:25:46;;;;;;;17.02;10.10;;;7.10;99.90;;;;;;5024457;28;20520;-69
2022/02/17 02:28:51;;;;;;;16.85;10.05;;;6.70;99.90;;;;;;5024391;28;20049;-68
2022/02/17 02:32:00;;;;;;;13.48;8.60;;;6.70;99.90;;;;;;5024152;28;20037;-69
2022/02/17 02:35:06;;;;;;;16.42;10.95;;;6.80;99.90;;;;;;5013110;28;20082;-69
2022/02/17 02:38:12;;;;;;;18.58;11.82;;;6.60;99.90;;;;;;5011137;28;20053;-69
2022/02/17 02:41:16;;;;;;;18.60;12.63;;;6.40;99.90;;;;;;5011769;28;20044;-70
2022/02/17 02:44:26;;;;;;;17.15;13.20;;;6.40;99.90;;;;;;5011977;28;20528;-69
2022/02/17 02:47:38;;;;;;;17.80;12.32;;;6.30;99.90;;;;;;5024899;28;20397;-69
2022/02/17 02:50:45;;;;;;;17.70;11.20;;;6.30;99.90;;;;;;5015479;28;20409;-70
2022/02/17 02:53:49;;;;;;;23.02;14.07;;;6.40;99.90;;;;;;5024669;28;20049;-69
2022/02/17 02:56:54;;;;;;;21.45;12.95;;;6.20;99.90;;;;;;5023976;28;20049;-69
2022/02/17 02:59:58;;;;;;;21.85;12.90;;;6.20;99.90;;;;;;5011697;28;20056;-69
2022/02/17 03:03:02;;;;;;;20.15;12.90;;;6.20;99.90;;;;;;5011551;28;20068;-69
2022/02/17 03:06:07;;;;;;;21.02;14.52;;;6.10;99.90;;;;;;5024294;28;20045;-69
2022/02/17 03:09:13;;;;;;;25.00;17.15;;;6.10;99.90;;;;;;5013796;28;20057;-69
2022/02/17 03:12:18;;;;;;;31.13;18.48;;;5.70;99.90;;;;;;5015182;28;20076;-69
2022/02/17 03:15:28;;;;;;;31.23;20.08;;;5.60;99.90;;;;;;5011380;28;20092;-69
2022/02/17 03:18:32;;;;;;;35.03;20.65;;;5.50;99.90;;;;;;5010390;28;20057;-69
2022/02/17 03:21:36;;;;;;;30.33;19.80;;;5.40;99.90;;;;;;5012154;28;20057;-69
2022/02/17 03:24:41;;;;;;;37.10;22.17;;;5.40;99.90;;;;;;5010565;28;20048;-69
2022/02/17 03:27:46;;;;;;;36.67;22.75;;;5.30;99.90;;;;;;5010436;28;20409;-70
2022/02/17 03:31:10;;;;;;;29.85;20.75;;;5.30;99.90;;;;;;5013800;28;20316;-69
2022/02/17 03:34:31;;;;;;;35.95;23.83;;;5.10;99.90;;;;;;5025380;28;20037;-69
2022/02/17 03:37:36;;;;;;;31.45;20.73;;;5.10;99.90;;;;;;5025355;28;20068;-69
2022/02/17 03:40:40;;;;;;;31.77;21.58;;;5.10;99.90;;;;;;5011132;28;20049;-69
2022/02/17 03:43:47;;;;;;;31.85;21.00;;;5.10;99.90;;;;;;5022181;28;20037;-69
2022/02/17 03:46:54;;;;;;;34.03;21.38;;;5.10;99.90;;;;;;5014570;28;20053;-69
2022/02/17 03:50:14;;;;;;;34.88;21.73;;;5.00;99.90;;;;;;5014946;28;20041;-69
2022/02/17 03:53:20;;;;;;;31.63;21.83;;;5.00;99.90;;;;;;5012627;28;20045;-69
2022/02/17 03:56:28;;;;;;;40.17;23.77;;;5.10;99.90;;;;;;5010196;28;20033;-69
2022/02/17 03:59:55;;;;;;;35.15;22.52;;;5.10;99.90;;;;;;5010624;28;20049;-69
2022/02/17 04:03:04;;;;;;;32.33;21.73;;;5.20;99.90;;;;;;5011389;28;20049;-69
2022/02/17 04:06:11;;;;;;;31.35;21.25;;;5.30;99.90;;;;;;5022570;28;20057;-69
2022/02/17 04:09:14;;;;;;;34.15;21.40;;;5.40;99.90;;;;;;5023728;28;20041;-69
2022/02/17 04:12:19;;;;;;;31.63;21.50;;;5.50;99.90;;;;;;5023225;28;20045;-69
2022/02/17 04:15:25;;;;;;;28.02;19.52;;;5.40;99.90;;;;;;5010928;28;20045;-69
2022/02/17 04:18:29;;;;;;;35.25;22.30;;;5.60;99.90;;;;;;5009206;28;20516;-69
2022/02/17 04:21:54;;;;;;;29.77;20.35;;;5.60;99.90;;;;;;5011381;28;20052;-69
2022/02/17 04:25:36;;;;;;;33.55;20.42;;;5.40;99.90;;;;;;5009005;28;20053;-69
2022/02/17 04:28:46;;;;;;;28.52;18.10;;;5.60;99.90;;;;;;5007022;28;20204;-69
2022/02/17 04:31:51;;;;;;;34.28;20.40;;;5.70;99.90;;;;;;5010474;28;20145;-69
2022/02/17 04:34:59;;;;;;;33.70;20.55;;;5.60;99.90;;;;;;5009648;28;20057;-69
2022/02/17 04:38:03;;;;;;;26.55;17.88;;;5.50;99.90;;;;;;5022639;28;20049;-69
2022/02/17 04:44:49;;;;;;;38.00;21.92;;;5.60;99.90;;;;;;5023345;28;20110;-69
2022/02/17 04:47:57;;;;;;;31.10;18.77;;;5.60;99.90;;;;;;5021251;28;20049;-69
2022/02/17 04:51:02;;;;;;;36.65;22.15;;;5.60;99.90;;;;;;5010751;28;20041;-69
2022/02/17 04:54:07;;;;;;;29.65;19.13;;;5.60;99.90;;;;;;5021589;28;20057;-69
2022/02/17 04:57:13;;;;;;;26.10;18.65;;;5.60;99.90;;;;;;5011884;28;20029;-69
2022/02/17 05:00:19;;;;;;;33.25;21.23;;;5.60;99.90;;;;;;5010408;28;20602;-69
2022/02/17 05:03:29;;;;;;;32.20;21.92;;;5.60;99.90;;;;;;5023598;28;20074;-69
2022/02/17 05:06:49;;;;;;;31.77;20.70;;;5.60;99.90;;;;;;5011268;28;20121;-69
2022/02/17 05:09:53;;;;;;;34.10;20.90;;;5.70;99.90;;;;;;5011583;28;20057;-69
2022/02/17 05:13:08;;;;;;;34.00;21.83;;;5.80;99.90;;;;;;5022863;28;20072;-69
2022/02/17 05:16:12;;;;;;;31.10;19.70;;;5.60;99.90;;;;;;5011237;28;20053;-69
2022/02/17 05:19:17;;;;;;;28.17;18.83;;;5.70;99.90;;;;;;5012363;28;20049;-68
2022/02/17 05:22:47;;;;;;;29.10;18.05;;;5.70;99.90;;;;;;5013064;28;20049;-69
2022/02/17 05:25:58;;;;;;;28.05;17.27;;;5.80;99.90;;;;;;5023964;28;20045;-69
2022/02/17 05:29:14;;;;;;;25.55;17.73;;;5.90;99.90;;;;;;5012504;28;20052;-69
2022/02/17 05:32:29;;;;;;;29.33;20.08;;;6.00;99.90;;;;;;5009123;28;20401;-70
2022/02/17 05:35:43;;;;;;;21.52;14.32;;;6.10;99.90;;;;;;5023746;28;20045;-70
2022/02/17 05:39:14;;;;;;;31.13;19.88;;;6.20;99.90;;;;;;5020037;28;20044;-69
2022/02/17 05:42:31;;;;;;;28.95;19.27;;;6.20;99.90;;;;;;5014749;28;20049;-70
2022/02/17 05:45:37;;;;;;;27.45;19.67;;;5.80;99.90;;;;;;5012190;28;20045;-69
2022/02/17 05:48:41;;;;;;;29.77;20.20;;;5.70;99.90;;;;;;5013175;28;20045;-70
2022/02/17 05:51:46;;;;;;;28.23;18.55;;;5.70;99.90;;;;;;5013296;28;20049;-69
2022/02/17 05:54:51;;;;;;;32.58;19.65;;;5.70;99.90;;;;;;5015475;28;20053;-70
2022/02/17 05:57:55;;;;;;;27.10;17.63;;;5.50;99.90;;;;;;5015468;28;20375;-70
2022/02/17 06:01:01;;;;;;;26.75;19.42;;;5.50;99.90;;;;;;5016105;28;20049;-70
2022/02/17 06:04:05;;;;;;;41.30;22.90;;;5.60;99.90;;;;;;5016601;28;20080;-70
2022/02/17 06:07:13;;;;;;;26.98;18.50;;;5.60;99.90;;;;;;5014506;28;20060;-69
2022/02/17 06:10:16;;;;;;;29.58;19.45;;;5.60;99.90;;;;;;5015667;28;20040;-69
2022/02/17 06:13:21;;;;;;;28.23;17.88;;;5.60;99.90;;;;;;5017024;28;20052;-70
2022/02/17 06:16:26;;;;;;;33.50;20.65;;;5.60;99.90;;;;;;5015618;28;20056;-70
2022/02/17 06:19:31;;;;;;;29.23;19.15;;;5.50;99.90;;;;;;5014120;28;20048;-70
2022/02/17 06:22:46;;;;;;;32.55;21.02;;;5.40;99.90;;;;;;5016235;28;20461;-70
2022/02/17 06:25:50;;;;;;;32.08;20.55;;;5.40;99.90;;;;;;5013185;28;20057;-70
2022/02/17 06:28:55;;;;;;;34.72;21.02;;;5.30;99.90;;;;;;5014834;28;20072;-70
2022/02/17 06:31:59;;;;;;;35.22;19.63;;;5.30;99.90;;;;;;5012306;28;20049;-70
2022/02/17 06:35:06;;;;;;;27.92;19.10;;;5.30;99.90;;;;;;5013001;28;20544;-70
2022/02/17 06:38:10;;;;;;;28.77;19.48;;;5.40;99.90;;;;;;5012554;28;20665;-69
2022/02/17 06:41:19;;;;;;;32.25;20.67;;;5.50;99.90;;;;;;5013114;28;20049;-70
2022/02/17 06:44:24;;;;;;;31.13;21.00;;;5.40;99.90;;;;;;5015252;28;20045;-70
2022/02/17 06:47:29;;;;;;;28.38;18.60;;;5.40;99.90;;;;;;5013690;28;20389;-70
2022/02/17 06:50:34;;;;;;;28.55;19.35;;;5.50;99.90;;;;;;5013888;28;20384;-70
2022/02/17 06:53:42;;;;;;;28.42;18.50;;;5.60;99.90;;;;;;5014681;28;20045;-69
2022/02/17 06:56:46;;;;;;;32.63;20.98;;;5.50;99.90;;;;;;5012934;28;20053;-69
2022/02/17 06:59:52;;;;;;;32.78;19.40;;;5.40;99.90;;;;;;5028833;28;20048;-70
2022/02/17 07:02:56;;;;;;;33.97;21.92;;;5.40;99.90;;;;;;5030176;28;20045;-70
2022/02/17 07:06:01;;;;;;;29.42;20.48;;;5.40;99.90;;;;;;5030274;28;20053;-69
2022/02/17 07:09:05;;;;;;;25.90;18.55;;;5.30;99.90;;;;;;5030213;28;20497;-70
2022/02/17 07:12:11;;;;;;;29.70;19.17;;;5.30;99.90;;;;;;5029822;28;20056;-69
2022/02/17 07:15:15;;;;;;;28.10;19.45;;;5.50;99.90;;;;;;5024783;28;20056;-70
2022/02/17 07:18:19;;;;;;;28.92;19.45;;;5.60;99.90;;;;;;5027910;28;20060;-69
2022/02/17 07:21:23;;;;;;;32.63;18.85;;;5.60;99.90;;;;;;5024061;28;20036;-69
2022/02/17 07:24:28;;;;;;;30.33;18.38;;;5.80;99.90;;;;;;5030009;28;20033;-69
2022/02/17 07:27:33;;;;;;;26.27;18.10;;;5.90;99.90;;;;;;5025042;28;20040;-69
2022/02/17 07:30:37;;;;;;;31.08;18.80;;;6.00;99.90;;;;;;5023495;28;20505;-69
2022/02/17 07:33:42;;;;;;;26.80;18.25;;;6.00;99.90;;;;;;5027549;28;20535;-70
2022/02/17 07:36:48;;;;;;;26.10;17.73;;;6.00;99.90;;;;;;5024790;28;20045;-69
2022/02/17 07:39:51;;;;;;;30.17;19.80;;;6.10;99.90;;;;;;5025534;28;20056;-69
2022/02/17 07:42:55;;;;;;;26.92;18.23;;;6.00;99.90;;;;;;5028662;28;20620;-69
2022/02/17 07:46:01;;;;;;;26.00;17.38;;;6.10;99.90;;;;;;5022597;28;20037;-70
2022/02/17 07:49:06;;;;;;;26.92;18.05;;;6.20;99.90;;;;;;5027908;28;20384;-70
2022/02/17 07:52:10;;;;;;;27.92;18.02;;;6.40;99.90;;;;;;5017260;28;20037;-71
2022/02/17 07:55:15;;;;;;;28.02;17.88;;;6.40;99.90;;;;;;5024412;28;20052;-69
2022/02/17 07:58:19;;;;;;;33.65;19.42;;;6.60;99.90;;;;;;5022489;28;20052;-67
2022/02/17 08:01:25;;;;;;;30.08;19.02;;;6.50;99.90;;;;;;5028088;28;20056;-67
2022/02/17 08:04:30;;;;;;;34.42;18.85;;;6.60;99.90;;;;;;5029658;28;20044;-67
2022/02/17 08:07:37;;;;;;;30.20;16.77;;;6.70;99.90;;;;;;5026432;28;20028;-68
2022/02/17 08:10:43;;;;;;;27.00;16.17;;;6.90;99.90;;;;;;5028268;28;20049;-68
2022/02/17 08:13:47;;;;;;;24.25;15.73;;;6.90;99.90;;;;;;5025830;28;20052;-67
2022/02/17 08:16:51;;;;;;;27.73;15.45;;;7.20;99.90;;;;;;5024002;28;20060;-67
2022/02/17 08:19:55;;;;;;;23.95;15.65;;;7.20;99.90;;;;;;5025814;28;20056;-68
2022/02/17 08:23:00;;;;;;;24.17;15.02;;;7.20;99.90;;;;;;5026802;28;20048;-68
2022/02/17 08:26:04;;;;;;;25.88;14.57;;;7.50;99.90;;;;;;5025679;28;20044;-68
2022/02/17 08:29:08;;;;;;;22.63;15.00;;;7.20;99.90;;;;;;5018449;28;20048;-67
2022/02/17 08:32:12;;;;;;;27.45;18.10;;;7.40;99.90;;;;;;5021829;28;20052;-67
2022/02/17 08:35:16;;;;;;;30.88;19.30;;;7.50;99.90;;;;;;5021704;28;20044;-67
2022/02/17 08:38:29;;;;;;;25.45;17.77;;;7.80;99.90;;;;;;5023690;28;20396;-68
2022/02/17 08:41:36;;;;;;;27.90;17.17;;;8.00;99.90;;;;;;5027415;28;20036;-67
2022/02/17 08:44:40;;;;;;;30.63;17.70;;;8.00;99.90;;;;;;5027768;28;20056;-68
2022/02/17 08:47:45;;;;;;;33.53;17.00;;;8.10;99.90;;;;;;5026251;28;20037;-70
2022/02/17 08:50:50;;;;;;;29.15;17.60;;;8.10;99.90;;;;;;5024696;28;20049;-68
2022/02/17 08:53:54;;;;;;;37.58;21.33;;;8.30;99.90;;;;;;5026112;28;20064;-68
2022/02/17 08:56:58;;;;;;;32.58;18.67;;;8.00;99.90;;;;;;5026404;28;20040;-70
2022/02/17 09:00:04;;;;;;;40.55;22.58;;;8.30;99.90;;;;;;5027278;28;20104;-67
2022/02/17 09:03:11;;;;;;;45.92;24.05;;;8.40;99.90;;;;;;5026947;28;20041;-69
2022/02/17 09:06:16;;;;;;;40.42;22.90;;;8.70;99.90;;;;;;5023019;28;20056;-70
2022/02/17 09:09:20;;;;;;;49.28;28.10;;;8.70;99.90;;;;;;5026854;28;20061;-70
2022/02/17 09:12:35;;;;;;;48.95;26.60;;;8.30;99.90;;;;;;5026160;28;20045;-70
2022/02/17 09:15:40;;;;;;;56.10;29.98;;;8.40;99.90;;;;;;5024402;28;20045;-70
2022/02/17 09:18:44;;;;;;;60.58;32.03;;;8.60;99.90;;;;;;5029983;28;20040;-70
2022/02/17 09:21:49;;;;;;;65.82;32.83;;;8.70;99.90;;;;;;5033019;28;20037;-70
2022/02/17 09:24:53;;;;;;;67.72;35.70;;;9.00;99.90;;;;;;5031027;28;20044;-70
2022/02/17 09:27:57;;;;;;;63.70;33.35;;;9.10;99.90;;;;;;5030761;28;20399;-70
2022/02/17 09:31:02;;;;;;;64.90;35.78;;;9.40;99.90;;;;;;5029135;28;20067;-70
2022/02/17 09:34:10;;;;;;;74.80;39.47;;;9.50;99.90;;;;;;5026812;28;20045;-70
2022/02/17 09:37:16;;;;;;;65.07;36.58;;;9.70;99.90;;;;;;5029307;28;20056;-70
2022/02/17 09:40:22;;;;;;;53.03;30.83;;;9.10;99.90;;;;;;5018175;28;20048;-70
2022/02/17 09:43:27;;;;;;;50.00;27.63;;;9.30;99.90;;;;;;5031150;28;20045;-70
2022/02/17 09:46:33;;;;;;;51.88;28.30;;;9.60;99.90;;;;;;5021513;28;20096;-69
2022/02/17 09:49:42;;;;;;;51.85;26.38;;;9.50;99.90;;;;;;5028409;28;20044;-70
2022/02/17 09:52:46;;;;;;;44.92;26.05;;;9.60;99.90;;;;;;5028195;28;20065;-70
2022/02/17 09:55:50;;;;;;;42.83;23.25;;;9.90;99.90;;;;;;5028145;28;20045;-69
2022/02/17 09:58:55;;;;;;;39.88;22.77;;;10.00;99.90;;;;;;5026166;28;20048;-70
2022/02/17 10:02:03;;;;;;;47.83;27.00;;;10.40;99.90;;;;;;5030298;28;20037;-69
2022/02/17 10:05:11;;;;;;;58.80;27.90;;;10.70;99.90;;;;;;5024839;28;20044;-70
2022/02/17 10:08:21;;;;;;;43.85;26.65;;;10.90;99.90;;;;;;5021935;28;20040;-70
2022/02/17 10:11:27;;;;;;;38.92;24.52;;;11.00;99.90;;;;;;5025711;28;20033;-69
2022/02/17 10:14:31;;;;;;;38.88;23.50;;;11.10;99.90;;;;;;5026539;28;20500;-70
2022/02/17 10:17:36;;;;;;;41.38;25.55;;;11.30;99.90;;;;;;5028887;28;20048;-70
2022/02/17 10:21:07;;;;;;;38.70;24.52;;;11.40;99.90;;;;;;5028933;28;20052;-70
2022/02/17 10:24:30;;;;;;;40.90;23.95;;;11.20;99.90;;;;;;5028325;28;20036;-70
2022/02/17 10:27:34;;;;;;;41.63;25.08;;;11.60;99.90;;;;;;5031516;28;20048;-68
2022/02/17 10:30:40;;;;;;;30.50;18.20;;;12.40;99.90;;;;;;5026389;28;20064;-68
2022/02/17 10:33:45;;;;;;;28.85;17.70;;;12.90;99.90;;;;;;5027172;28;20507;-68
2022/02/17 10:36:51;;;;;;;29.85;18.10;;;13.10;99.90;;;;;;5030490;28;20484;-68
2022/02/17 10:39:54;;;;;;;29.02;18.08;;;13.80;99.90;;;;;;5027897;28;20056;-68
2022/02/17 10:43:12;;;;;;;33.67;20.77;;;14.60;99.90;;;;;;5032168;28;20053;-69
2022/02/17 10:46:16;;;;;;;39.10;21.13;;;15.50;99.90;;;;;;5029724;28;20036;-68
2022/02/17 10:49:21;;;;;;;29.40;18.65;;;17.00;99.90;;;;;;5016290;28;20056;-68
2022/02/17 10:52:36;;;;;;;26.83;16.50;;;18.10;99.90;;;;;;5024800;28;20052;-68
2022/02/17 10:55:59;;;;;;;24.38;14.48;;;18.00;99.90;;;;;;5027379;28;20048;-68
2022/02/17 11:00:01;;;;;;;11.07;6.57;;;17.80;99.90;;;;;;5025978;28;20049;-69
2022/02/17 11:02:32;;;;;;;7.88;2.40;;;18.40;99.90;;;;;;5026731;28;20041;-68
2022/02/17 11:05:38;;;;;;;7.55;3.28;;;21.40;98.60;;;;;;5027010;28;20044;-71
2022/02/17 11:08:44;;;;;;;11.18;4.90;;;21.10;98.30;;;;;;5028341;28;20048;-69
2022/02/17 11:11:51;;;;;;;6.28;3.35;;;21.90;97.60;;;;;;5030869;28;20052;-69
2022/02/17 11:14:56;;;;;;;5.32;2.65;;;23.00;94.20;;;;;;5029793;28;20036;-69
2022/02/17 11:18:00;;;;;;;5.93;4.03;;;25.10;91.90;;;;;;5025720;28;20044;-69
2022/02/17 11:21:05;;;;;;;7.85;5.22;;;25.70;90.50;;;;;;5012876;28;20400;-69
2022/02/17 11:24:10;;;;;;;6.53;4.10;;;26.00;89.70;;;;;;5028760;28;20388;-70
2022/02/17 11:27:14;;;;;;;4.13;1.50;;;27.20;86.90;;;;;;5024017;28;20108;-70
2022/02/17 11:30:22;;;;;;;2.65;1.42;;;28.60;84.70;;;;;;5023339;28;20393;-70
2022/02/17 11:33:28;;;;;;;3.58;1.35;;;29.60;78.90;;;;;;5027230;28;20051;-69
2022/02/17 11:36:32;;;;;;;4.70;2.05;;;28.50;76.10;;;;;;5030642;28;20052;-69
2022/02/17 11:39:58;;;;;;;7.32;1.70;;;25.00;81.40;;;;;;5028563;28;20045;-69
2022/02/17 11:43:04;;;;;;;4.82;1.67;;;22.60;85.40;;;;;;5029470;28;20056;-70
2022/02/17 11:46:11;;;;;;;3.05;1.38;;;23.90;87.80;;;;;;5026719;28;20048;-70
2022/02/17 11:49:31;;;;;;;4.75;1.48;;;24.40;86.70;;;;;;5030810;28;20499;-69
2022/02/17 11:52:37;;;;;;;2.50;1.65;;;24.00;83.30;;;;;;5022556;28;20044;-70
2022/02/17 11:55:43;;;;;;;5.85;1.80;;;23.30;85.00;;;;;;5025055;28;20048;-70
2022/02/17 11:58:52;;;;;;;5.53;2.03;;;21.40;86.20;;;;;;5029246;28;20048;-70
2022/02/17 12:02:01;;;;;;;6.63;2.20;;;20.40;91.40;;;;;;5024804;28;20048;-70
2022/02/17 12:05:18;;;;;;;8.32;2.17;;;21.60;91.10;;;;;;5029488;28;20381;-70
2022/02/17 12:08:24;;;;;;;4.35;1.77;;;20.90;91.10;;;;;;5020574;28;20052;-69
2022/02/17 12:11:31;;;;;;;4.05;1.75;;;18.50;91.40;;;;;;5029508;28;20561;-70
2022/02/17 12:14:37;;;;;;;4.43;1.70;;;18.70;95.20;;;;;;5026941;28;20052;-70
2022/02/17 12:17:43;;;;;;;6.30;2.42;;;19.70;94.60;;;;;;5014589;28;20056;-69
2022/02/17 12:20:47;;;;;;;4.60;1.83;;;20.50;94.90;;;;;;5024999;28;20060;-70
2022/02/17 12:23:53;;;;;;;3.65;1.90;;;20.80;92.60;;;;;;5029278;28;20035;-70
2022/02/17 12:26:57;;;;;;;4.03;1.70;;;21.90;92.10;;;;;;5027423;28;21626;-70
2022/02/17 12:30:02;;;;;;;6.93;2.20;;;23.30;91.40;;;;;;5024135;28;20076;-70
2022/02/17 12:33:20;;;;;;;5.85;3.20;;;23.20;91.20;;;;;;5028141;28;20056;-70
2022/02/17 12:36:34;;;;;;;5.07;1.80;;;22.60;91.40;;;;;;5024610;28;20044;-70
2022/02/17 12:39:44;;;;;;;18.33;8.75;;;22.20;91.40;;;;;;5024917;28;20048;-70
2022/02/17 12:42:51;;;;;;;5.40;1.90;;;24.20;90.80;;;;;;5024897;28;20045;-69
2022/02/17 12:45:58;;;;;;;8.27;3.33;;;24.80;85.00;;;;;;5022413;28;20318;-70
2022/02/17 12:49:07;;;;;;;3.03;1.52;;;25.90;86.90;;;;;;5023069;28;20052;-70
2022/02/17 12:52:14;;;;;;;2.47;1.40;;;28.70;82.80;;;;;;5026283;28;20060;-71
2022/02/17 12:55:18;;;;;;;4.47;1.83;;;29.20;80.00;;;;;;5025226;28;20044;-71
2022/02/17 12:58:28;;;;;;;3.75;1.65;;;28.00;79.50;;;;;;5026851;28;20044;-70
2022/02/17 13:01:38;;;;;;;5.63;1.70;;;26.30;81.20;;;;;;5026812;28;20036;-70
2022/02/17 13:04:47;;;;;;;4.13;1.60;;;25.80;83.60;;;;;;5022621;28;20045;-71
2022/02/17 13:07:54;;;;;;;3.38;1.05;;;27.70;81.00;;;;;;5022296;28;20040;-71
2022/02/17 13:10:59;;;;;;;5.28;1.35;;;29.20;77.10;;;;;;5025601;28;20040;-71
2022/02/17 13:14:10;;;;;;;3.53;1.13;;;28.40;77.00;;;;;;5029446;28;20041;-70
2022/02/17 13:17:25;;;;;;;3.28;1.20;;;27.40;78.40;;;;;;5025458;28;20040;-70
2022/02/17 13:20:32;;;;;;;4.50;1.75;;;26.00;79.70;;;;;;5010548;28;20053;-70
2022/02/17 13:23:36;;;;;;;3.85;1.60;;;24.60;81.80;;;;;;5021830;28;20037;-70
2022/02/17 13:26:40;;;;;;;2.90;1.70;;;23.80;83.80;;;;;;5029663;28;20037;-70
2022/02/17 13:29:51;;;;;;;4.50;1.35;;;23.30;86.00;;;;;;5029951;28;20049;-71
2022/02/17 13:33:01;;;;;;;4.88;1.42;;;24.70;85.00;;;;;;5028169;28;20056;-72
2022/02/17 13:36:07;;;;;;;2.63;1.33;;;27.50;81.20;;;;;;5025975;28;20045;-72
2022/02/17 13:39:11;;;;;;;3.35;1.40;;;29.60;77.00;;;;;;5030121;28;20550;-72
2022/02/17 13:42:20;;;;;;;3.72;1.50;;;30.50;74.50;;;;;;5030228;28;20033;-71
2022/02/17 13:45:28;;;;;;;3.50;1.55;;;28.90;75.10;;;;;;5030402;28;20053;-71
2022/02/17 13:48:37;;;;;;;6.47;1.65;;;28.50;76.40;;;;;;5024154;28;20492;-71
2022/02/17 13:51:46;;;;;;;3.80;1.52;;;29.00;76.00;;;;;;5022284;28;20041;-72
2022/02/17 13:54:56;;;;;;;6.50;2.67;;;30.00;73.90;;;;;;5025611;28;20052;-72
2022/02/17 13:58:04;;;;;;;4.35;2.35;;;30.80;72.70;;;;;;5028864;28;20120;-71
2022/02/17 14:01:09;;;;;;;4.03;1.75;;;31.10;71.30;;;;;;5029963;28;20048;-71
2022/02/17 14:04:31;;;;;;;4.60;1.95;;;29.80;72.60;;;;;;5026770;28;20372;-72
2022/02/17 14:07:40;;;;;;;5.20;1.55;;;29.20;72.10;;;;;;5021189;28;20036;-71
2022/02/17 14:10:45;;;;;;;4.93;2.78;;;27.80;74.80;;;;;;5017130;28;20045;-72
2022/02/17 14:13:50;;;;;;;8.10;2.13;;;26.20;77.00;;;;;;5021749;28;20392;-71
2022/02/17 14:16:56;;;;;;;5.13;1.70;;;25.40;79.70;;;;;;5025698;28;20515;-71
2022/02/17 14:20:01;;;;;;;18.80;10.82;;;25.80;79.10;;;;;;5016866;28;20048;-71
2022/02/17 14:23:05;;;;;;;4.20;1.73;;;26.00;78.40;;;;;;5028444;28;20053;-71
2022/02/17 14:26:09;;;;;;;16.13;10.77;;;26.50;77.10;;;;;;5032828;28;20043;-71
2022/02/17 14:29:14;;;;;;;6.20;2.42;;;26.80;77.40;;;;;;5023963;28;20041;-71
2022/02/17 14:32:20;;;;;;;4.18;2.25;;;26.90;76.80;;;;;;5027433;28;20057;-72
2022/02/17 14:35:23;;;;;;;10.18;2.75;;;25.40;78.40;;;;;;5030585;28;20045;-71
2022/02/17 14:38:27;;;;;;;6.18;2.53;;;23.40;81.40;;;;;;5024705;28;20052;-70
2022/02/17 14:41:31;;;;;;;6.07;2.92;;;22.20;84.90;;;;;;5014291;28;20492;-71
2022/02/17 14:44:36;;;;;;;5.13;2.50;;;22.10;85.40;;;;;;5017558;28;20041;-72
2022/02/17 14:47:40;;;;;;;7.80;2.80;;;22.60;84.90;;;;;;5029306;28;20404;-71
2022/02/17 14:50:45;;;;;;;8.85;2.92;;;22.50;85.20;;;;;;5020134;28;20056;-70
2022/02/17 14:53:49;;;;;;;6.28;2.58;;;21.80;87.20;;;;;;5031110;28;20048;-71
2022/02/17 14:56:57;;;;;;;10.05;3.63;;;21.80;87.00;;;;;;5029245;28;20048;-71
2022/02/17 15:00:03;;;;;;;8.25;4.00;;;22.10;86.60;;;;;;5028665;28;20036;-70
2022/02/17 15:03:08;;;;;;;6.22;3.30;;;22.20;86.70;;;;;;5028775;28;20052;-71
2022/02/17 15:06:12;;;;;;;7.10;3.17;;;22.80;86.20;;;;;;5021373;28;20036;-71
2022/02/17 15:09:20;;;;;;;7.82;4.80;;;22.40;86.20;;;;;;5018588;28;20125;-70
2022/02/17 15:12:25;;;;;;;6.63;3.33;;;21.80;88.10;;;;;;5021567;28;20037;-71
2022/02/17 15:15:30;;;;;;;5.95;3.60;;;21.40;88.80;;;;;;5016409;28;20500;-70
2022/02/17 15:18:34;;;;;;;11.13;5.20;;;21.00;90.00;;;;;;5018185;28;20033;-70
2022/02/17 15:21:39;;;;;;;11.00;4.30;;;20.70;91.50;;;;;;5024979;28;20040;-70
2022/02/17 15:24:43;;;;;;;12.27;4.82;;;20.40;91.50;;;;;;5024829;28;20040;-71
2022/02/17 15:27:50;;;;;;;9.35;5.28;;;20.30;91.50;;;;;;5022382;28;20044;-70
2022/02/17 15:30:54;;;;;;;16.67;10.40;;;19.90;91.80;;;;;;5027171;28;20052;-70
2022/02/17 15:33:58;;;;;;;17.98;11.35;;;19.30;92.60;;;;;;5029626;28;20052;-70
2022/02/17 15:37:03;;;;;;;20.92;11.75;;;18.60;93.50;;;;;;5012196;28;20053;-70
2022/02/17 15:40:09;;;;;;;16.27;8.70;;;18.00;94.40;;;;;;5028094;28;20044;-70
2022/02/17 15:43:14;;;;;;;16.20;7.80;;;17.40;95.80;;;;;;5027992;28;20036;-70
2022/02/17 15:46:20;;;;;;;14.77;6.28;;;17.10;96.90;;;;;;5027659;28;20033;-71
2022/02/17 15:49:28;;;;;;;13.82;5.20;;;17.10;97.10;;;;;;5030546;28;20037;-70
2022/02/17 15:52:32;;;;;;;10.82;4.72;;;16.80;97.80;;;;;;5026103;28;20045;-71
2022/02/17 15:55:36;;;;;;;9.55;3.70;;;16.80;98.50;;;;;;5023665;28;20044;-70
2022/02/17 15:58:45;;;;;;;8.70;3.80;;;17.10;97.90;;;;;;5022183;28;20040;-70
2022/02/17 16:01:49;;;;;;;8.25;4.03;;;17.10;97.90;;;;;;5025915;28;20380;-70
2022/02/17 16:04:53;;;;;;;8.30;3.63;;;17.00;98.10;;;;;;5027525;28;20380;-70